Billings, MT (59101)

6:36 PM MDT on July 23, 2016 (GMT -0600)
Jupiter Sulphur | | Change Station
Active Advisory: Fire Weather Warning Active Notice: Record Report

Elev 3114 ft 45.78 °N, 108.49 °W | Updated 5 minutes ago

Partly Cloudy
Partly Cloudy
84.8 °F
Feels Like 82 °F
N
9.0
Wind Variable Wind from NE
Gusts 11.0 mph

Today
High -- | Low -- °F
--% Chance of Precip.
Yesterday
High -- | Low -- °F
Precip. -- in
Pressure 29.91 in
Visibility 10.0 miles
Clouds Few 13000 ft
Few 22000 ft
Heat Index 82 °F
Dew Point 41 °F
Humidity 21%
Rainfall 0.00 in
Snow Depth Not available.
5:47 AM 8:52 PM
Waning Gibbous, 81% visible
METAR KBIL 232353Z 04010KT 10SM FEW130 FEW220 28/02 A3001 RMK AO2 SLP127 T02830022 10306 20272 57005
Pressure 29.91 in
Visibility 10.0 miles
Clouds Few 13000 ft
Few 22000 ft
Heat Index 82 °F
Dew Point 41 °F
Humidity 21%
Rainfall 0.00 in
Snow Depth Not available.
5:47 AM 8:52 PM
Waning Gibbous, 81% visible
METAR KBIL 232353Z 04010KT 10SM FEW130 FEW220 28/02 A3001 RMK AO2 SLP127 T02830022 10306 20272 57005

10-Day Weather Forecast

Almanac

Astronomy

Jul. 23, 2016 Rise Set
Actual Time
Civil Twilight
Nautical Twilight
Astronomical Twilight
Moon
Length of Visible Light
Length of Day
Tomorrow will be .
, % of the Moon is Illuminated

Today's Extremes

State Highs State Lows

Community

WunderPhotos

Upload Photos

1,926,982 photos uploaded!

WunderBlog® & News

Nearby

Air Quality

  Air Quality AQ Index Pollutant
Not available.

Snow Depth

Station Depth Elevation

Earthquake Activity

City Distance Mag. Time & Date
Minimum magnitude displayed is 2.5.

Coastal Water Temperatures

Place Temperature

Stations

Nearby Weather Stations

Station Location Temp. Windchill Dew Point Humidity Wind Precip. Elev Updated Type
                   

Watches & Warnings

Fire Weather Warning
Issued: 2:45 PM MDT Jul. 23, 2016 – National Weather Service

... Red flag warning remains in effect until 9 PM MDT this
evening...

* impacts: low humidities and strong gusty winds will create
erratic fire behavior.

* Affected area:
   in south central Mt fire zone... .129.
   In southeast Mt fire zones... 131... 132.
   In southeast Mt and northwest SD fire zone... .133.

* Counties affected:
   in northwest SD... Harding.
   In south central Mt... Big Horn... Carbon... Yellowstone.
   In southeast Mt... Carter... Custer... Fallon... Powder River
                     Rosebud... Treasure.

* Wind: northwest 20 to 25 mph with gusts up to 40 mph.

* Humidity: as low as 15 to 20 percent.

Precautionary/preparedness actions...

A red flag warning means that critical fire weather conditions are
either occurring now... or will shortly. A combination of strong
winds... low relative humidity... and warm temperatures can
contribute to extreme fire behavior.